Time;durP1;ratioP1;P1;durP2;ratioP2;P2;SDS_P1;SDS_P2;PMS_P1;PMS_P2;Temp;Humidity;BMP_temperature;BMP_pressure;BME280_temperature;BME280_humidity;BME280_pressure;Samples;Min_cycle;Max_cycle;Signal;HPM_P1;HPM_P2
2023/05/05 00:02:23;;;;;;;;;;;;;;;16.29;52.86;100357.12;4388670;32;34067;-83
2023/05/05 00:04:52;;;;;;;;;;;;;;;16.25;53.03;100360.03;4391300;32;34288;-83
2023/05/05 00:07:19;;;;;;;;;;;;;;;16.17;53.10;100359.63;4386529;32;34887;-83
2023/05/05 00:09:47;;;;;;;;;;;;;;;16.13;52.94;100350.94;4380834;32;32496;-83
2023/05/05 00:12:17;;;;;;;;;;;;;;;16.12;52.92;100354.56;4376396;32;32698;-83
2023/05/05 00:14:44;;;;;;;;;;;;;;;16.05;52.68;100354.06;4385118;32;34603;-83
2023/05/05 00:17:12;;;;;;;;;;;;;;;15.90;53.43;100362.06;4385298;32;34170;-84
2023/05/05 00:19:40;;;;;;;;;;;;;;;15.99;53.36;100353.53;4371537;32;33255;-83
2023/05/05 00:22:08;;;;;;;;;;;;;;;15.91;53.68;100361.12;4392955;32;32622;-83
2023/05/05 00:24:39;;;;;;;;;;;;;;;15.84;53.99;100361.47;4399495;32;33156;-83
2023/05/05 00:27:07;;;;;;;;;;;;;;;15.90;53.61;100364.72;4398681;32;35231;-84
2023/05/05 00:29:34;;;;;;;;;;;;;;;15.83;53.92;100356.22;4399919;32;33257;-83
2023/05/05 00:32:02;;;;;;;;;;;;;;;15.78;54.04;100352.97;4400352;32;33789;-84
2023/05/05 00:34:30;;;;;;;;;;;;;;;15.67;54.35;100350.91;4388813;32;33369;-84
2023/05/05 00:36:58;;;;;;;;;;;;;;;15.67;53.92;100353.59;4382815;32;33515;-83
2023/05/05 00:39:26;;;;;;;;;;;;;;;15.58;53.98;100349.59;4398394;32;32489;-84
2023/05/05 00:41:54;;;;;;;;;;;;;;;15.47;53.85;100351.97;4401179;32;33782;-84
2023/05/05 00:44:30;;;;;;;;;;;;;;;15.51;53.87;100353.53;4402626;32;32827;-84
2023/05/05 00:46:59;;;;;;;;;;;;;;;15.37;54.16;100348.09;4400691;32;34092;-84
2023/05/05 00:49:29;;;;;;;;;;;;;;;15.40;53.90;100347.94;4399615;32;32400;-84
2023/05/05 00:51:57;;;;;;;;;;;;;;;15.41;54.00;100347.00;4402108;32;33744;-85
2023/05/05 00:54:26;;;;;;;;;;;;;;;15.42;53.78;100348.69;4398298;32;34006;-83
2023/05/05 00:56:53;;;;;;;;;;;;;;;15.30;54.04;100346.72;4400186;32;32862;-84
2023/05/05 00:59:21;;;;;;;;;;;;;;;15.28;54.05;100336.16;4401978;32;32718;-84
2023/05/05 01:01:50;;;;;;;;;;;;;;;15.25;54.08;100346.13;4409493;32;33756;-83
2023/05/05 01:04:17;;;;;;;;;;;;;;;15.18;54.38;100342.91;4399810;32;34002;-84
2023/05/05 01:06:54;;;;;;;;;;;;;;;15.18;54.33;100340.25;4400210;32;34068;-83
2023/05/05 01:09:25;;;;;;;;;;;;;;;15.28;53.86;100337.97;4400529;32;33059;-84
2023/05/05 01:12:07;;;;;;;;;;;;;;;15.20;54.07;100338.37;4399260;32;34107;-83
2023/05/05 01:14:40;;;;;;;;;;;;;;;15.15;54.34;100342.25;4399998;32;33528;-84
2023/05/05 01:17:16;;;;;;;;;;;;;;;14.93;54.63;100339.88;4402550;32;35185;-83
2023/05/05 01:19:57;;;;;;;;;;;;;;;14.82;55.12;100341.28;4399592;32;33543;-84
2023/05/05 01:22:26;;;;;;;;;;;;;;;14.67;55.44;100334.12;4404997;32;33853;-84
2023/05/05 01:25:11;;;;;;;;;;;;;;;14.75;55.53;100336.38;4388458;32;33158;-83
2023/05/05 01:27:45;;;;;;;;;;;;;;;14.81;55.27;100333.38;4393729;32;33609;-84
2023/05/05 01:30:31;;;;;;;;;;;;;;;14.84;55.29;100335.87;4414423;32;33315;-84
2023/05/05 01:33:03;;;;;;;;;;;;;;;14.75;55.32;100333.72;4403055;32;34256;-84
2023/05/05 01:35:42;;;;;;;;;;;;;;;14.66;55.79;100336.84;4398405;32;34968;-84
2023/05/05 01:38:13;;;;;;;;;;;;;;;14.74;55.35;100338.16;4398463;32;34142;-83
2023/05/05 01:40:47;;;;;;;;;;;;;;;14.60;55.86;100330.91;4402761;32;32761;-84
2023/05/05 01:43:15;;;;;;;;;;;;;;;14.56;55.84;100332.00;4386820;32;32958;-84
2023/05/05 01:45:44;;;;;;;;;;;;;;;14.53;56.02;100337.50;4402362;32;34083;-83
2023/05/05 01:48:12;;;;;;;;;;;;;;;14.40;56.48;100336.38;4400414;32;33973;-83
2023/05/05 01:50:42;;;;;;;;;;;;;;;14.47;56.39;100340.41;4400992;32;33592;-82
2023/05/05 01:53:11;;;;;;;;;;;;;;;14.35;56.52;100344.56;4397705;32;34564;-83
2023/05/05 01:55:39;;;;;;;;;;;;;;;14.24;56.96;100336.28;4399413;32;33535;-83
2023/05/05 01:58:09;;;;;;;;;;;;;;;14.33;56.83;100334.94;4402340;32;34119;-83
2023/05/05 02:00:37;;;;;;;;;;;;;;;14.38;56.54;100332.91;4400705;32;32689;-84
2023/05/05 02:03:06;;;;;;;;;;;;;;;14.45;56.05;100336.13;4399073;32;35269;-84
2023/05/05 02:05:35;;;;;;;;;;;;;;;14.38;56.40;100335.56;4400127;32;34490;-84
2023/05/05 02:08:04;;;;;;;;;;;;;;;14.42;56.20;100329.16;4401302;32;34067;-83
2023/05/05 02:10:34;;;;;;;;;;;;;;;14.24;56.72;100330.09;4401900;32;33678;-83
2023/05/05 02:13:02;;;;;;;;;;;;;;;14.31;56.67;100331.53;4401078;32;34908;-83
2023/05/05 02:15:30;;;;;;;;;;;;;;;14.38;56.33;100327.59;4417139;32;34264;-84
2023/05/05 02:17:58;;;;;;;;;;;;;;;14.04;57.27;100334.59;4402144;32;33800;-83
2023/05/05 02:20:27;;;;;;;;;;;;;;;14.16;56.89;100333.16;4399536;32;32937;-83
2023/05/05 02:22:55;;;;;;;;;;;;;;;14.16;56.86;100329.66;4399006;32;34847;-84
2023/05/05 02:25:24;;;;;;;;;;;;;;;14.14;57.04;100329.69;4397915;32;34719;-83
2023/05/05 02:27:51;;;;;;;;;;;;;;;14.20;56.80;100331.22;4394168;32;36639;-83
2023/05/05 02:30:20;;;;;;;;;;;;;;;14.13;57.08;100332.44;4400716;32;32926;-83
2023/05/05 02:32:55;;;;;;;;;;;;;;;14.05;57.24;100331.03;4399878;32;34345;-83
2023/05/05 02:35:26;;;;;;;;;;;;;;;14.01;57.04;100324.16;4398937;32;34417;-84
2023/05/05 02:37:58;;;;;;;;;;;;;;;14.02;56.65;100325.00;4399499;32;34399;-84
2023/05/05 02:40:32;;;;;;;;;;;;;;;14.07;56.29;100323.84;4401024;32;33527;-83
2023/05/05 02:43:06;;;;;;;;;;;;;;;14.04;56.84;100324.00;4398659;32;33813;-83
2023/05/05 02:45:34;;;;;;;;;;;;;;;14.08;56.48;100322.03;4398501;32;34669;-82
2023/05/05 02:48:03;;;;;;;;;;;;;;;13.92;56.70;100323.75;4399499;32;33784;-82
2023/05/05 02:50:32;;;;;;;;;;;;;;;14.00;56.61;100326.88;4401011;32;32555;-83
2023/05/05 02:53:02;;;;;;;;;;;;;;;14.00;56.38;100327.72;4414385;32;33947;-84
2023/05/05 02:55:51;;;;;;;;;;;;;;;13.91;56.66;100328.22;4401747;32;34025;-84
2023/05/05 02:58:32;;;;;;;;;;;;;;;14.05;56.02;100330.16;4401014;32;34354;-82
2023/05/05 03:01:06;;;;;;;;;;;;;;;13.71;56.76;100336.25;4381195;32;34146;-82
2023/05/05 03:03:39;;;;;;;;;;;;;;;13.72;57.08;100332.66;4398392;32;33881;-83
2023/05/05 03:06:16;;;;;;;;;;;;;;;13.73;57.18;100337.06;4398482;32;34083;-82
2023/05/05 03:08:49;;;;;;;;;;;;;;;13.67;57.46;100338.19;4398971;32;34416;-83
2023/05/05 03:11:23;;;;;;;;;;;;;;;13.63;57.51;100330.47;4401464;32;33162;-82
2023/05/05 03:14:00;;;;;;;;;;;;;;;13.42;58.09;100341.16;4397844;32;34317;-82
2023/05/05 03:16:33;;;;;;;;;;;;;;;13.50;58.22;100339.00;4399313;32;35626;-82
2023/05/05 03:19:02;;;;;;;;;;;;;;;13.58;58.14;100334.22;4397795;32;34529;-82
2023/05/05 03:21:31;;;;;;;;;;;;;;;13.68;57.34;100331.97;4401444;32;32897;-83
2023/05/05 03:23:59;;;;;;;;;;;;;;;13.52;57.88;100330.97;4395328;32;34266;-83
2023/05/05 03:26:28;;;;;;;;;;;;;;;13.56;57.90;100332.53;4400949;32;34958;-83
2023/05/05 03:28:57;;;;;;;;;;;;;;;13.30;58.15;100333.78;4395701;32;34500;-83
2023/05/05 03:31:27;;;;;;;;;;;;;;;13.49;57.63;100334.63;4387800;32;34005;-83
2023/05/05 03:33:56;;;;;;;;;;;;;;;13.43;57.80;100329.59;4379244;32;35011;-83
2023/05/05 03:36:26;;;;;;;;;;;;;;;13.41;57.99;100336.78;4383987;32;35062;-83
2023/05/05 03:38:56;;;;;;;;;;;;;;;13.37;58.30;100335.19;4395058;32;34923;-82
2023/05/05 03:41:26;;;;;;;;;;;;;;;13.62;57.47;100339.34;4395388;32;33637;-82
2023/05/05 03:43:53;;;;;;;;;;;;;;;13.53;57.58;100333.56;4395935;32;34933;-81
2023/05/05 03:46:22;;;;;;;;;;;;;;;13.33;58.50;100336.28;4398154;32;33988;-82
2023/05/05 03:48:50;;;;;;;;;;;;;;;13.35;58.80;100334.44;4395414;32;34080;-82
2023/05/05 03:51:21;;;;;;;;;;;;;;;13.30;59.01;100337.28;4408845;32;33638;-83
2023/05/05 03:53:51;;;;;;;;;;;;;;;13.34;59.04;100343.31;4394376;32;33811;-82
2023/05/05 03:56:18;;;;;;;;;;;;;;;13.48;58.60;100337.34;4396658;32;34051;-82
2023/05/05 03:58:48;;;;;;;;;;;;;;;13.39;59.02;100349.28;4393017;32;34478;-82
2023/05/05 04:01:16;;;;;;;;;;;;;;;13.76;57.82;100344.84;4387989;32;33665;-82
2023/05/05 04:03:44;;;;;;;;;;;;;;;13.94;56.95;100343.09;4394554;32;37209;-82
2023/05/05 04:06:12;;;;;;;;;;;;;;;13.61;58.01;100356.22;4397384;32;34817;-84
2023/05/05 04:08:40;;;;;;;;;;;;;;;13.68;58.46;100353.19;4396622;32;33689;-83
2023/05/05 04:11:09;;;;;;;;;;;;;;;13.88;57.66;100354.88;4395014;32;34908;-82
2023/05/05 04:13:40;;;;;;;;;;;;;;;13.83;58.30;100351.59;4399091;32;34894;-82
2023/05/05 04:16:10;;;;;;;;;;;;;;;13.73;58.50;100345.03;4412877;32;34353;-82
2023/05/05 04:18:40;;;;;;;;;;;;;;;13.95;58.05;100348.34;4396180;32;34926;-82
2023/05/05 04:21:10;;;;;;;;;;;;;;;14.09;57.65;100345.84;4408952;32;33725;-82
2023/05/05 04:23:38;;;;;;;;;;;;;;;14.06;57.74;100343.38;4397824;32;34034;-83
2023/05/05 04:26:07;;;;;;;;;;;;;;;14.29;57.21;100344.00;4397914;32;35007;-82
2023/05/05 04:28:37;;;;;;;;;;;;;;;14.39;56.75;100345.28;4398737;32;35876;-82
2023/05/05 04:31:06;;;;;;;;;;;;;;;14.49;56.29;100346.56;4396482;32;34286;-82
2023/05/05 04:33:35;;;;;;;;;;;;;;;14.64;55.93;100342.25;4395056;32;33979;-82
2023/05/05 04:36:05;;;;;;;;;;;;;;;14.60;56.81;100353.97;4400066;32;34628;-82
2023/05/05 04:38:33;;;;;;;;;;;;;;;14.52;57.18;100354.34;4397943;32;35132;-82
2023/05/05 04:41:05;;;;;;;;;;;;;;;14.41;57.14;100362.00;4384354;32;33679;-82
2023/05/05 04:43:35;;;;;;;;;;;;;;;14.33;57.31;100361.50;4398272;32;33901;-83
2023/05/05 04:46:03;;;;;;;;;;;;;;;14.20;57.79;100360.44;4399446;32;34090;-82
2023/05/05 04:48:35;;;;;;;;;;;;;;;14.11;58.40;100360.88;4385814;32;35010;-82
2023/05/05 04:51:12;;;;;;;;;;;;;;;13.93;59.54;100363.50;4398868;32;34828;-83
2023/05/05 04:53:40;;;;;;;;;;;;;;;14.16;59.34;100367.69;4394422;32;34556;-82
2023/05/05 04:56:14;;;;;;;;;;;;;;;14.38;58.78;100372.75;4402098;32;34106;-83
2023/05/05 04:58:43;;;;;;;;;;;;;;;14.52;58.48;100367.66;4398220;32;34727;-83
2023/05/05 05:01:11;;;;;;;;;;;;;;;14.71;57.44;100364.03;4409260;32;33228;-82
2023/05/05 05:03:40;;;;;;;;;;;;;;;14.81;57.60;100367.94;4396265;32;34799;-82
2023/05/05 05:06:11;;;;;;;;;;;;;;;14.92;57.51;100364.75;4399278;32;35306;-82
2023/05/05 05:08:41;;;;;;;;;;;;;;;15.10;56.94;100359.31;4396418;32;34812;-82
2023/05/05 05:11:11;;;;;;;;;;;;;;;15.20;56.68;100358.81;4384004;32;33329;-83
2023/05/05 05:13:40;;;;;;;;;;;;;;;15.54;54.94;100364.00;4386434;32;35202;-83
2023/05/05 05:16:08;;;;;;;;;;;;;;;15.68;54.48;100365.09;4399157;32;34344;-83
2023/05/05 05:18:38;;;;;;;;;;;;;;;15.83;54.53;100377.53;4397889;32;34431;-81
2023/05/05 05:21:11;;;;;;;;;;;;;;;15.85;54.73;100372.97;4396766;32;34294;-81
2023/05/05 05:23:44;;;;;;;;;;;;;;;15.90;55.32;100372.69;4402228;32;34853;-81
2023/05/05 05:26:12;;;;;;;;;;;;;;;15.87;55.78;100368.44;4386213;32;34795;-82
2023/05/05 05:28:41;;;;;;;;;;;;;;;16.06;55.04;100361.09;4396342;32;33089;-82
2023/05/05 05:31:09;;;;;;;;;;;;;;;16.37;53.64;100373.50;4400019;32;32909;-82
2023/05/05 05:33:37;;;;;;;;;;;;;;;16.51;53.33;100371.81;4387302;32;34728;-83
2023/05/05 05:36:07;;;;;;;;;;;;;;;16.47;50.42;100375.63;4399768;32;34702;-82
2023/05/05 05:38:35;;;;;;;;;;;;;;;16.18;49.11;100374.66;4385884;32;35782;-81
2023/05/05 05:41:05;;;;;;;;;;;;;;;16.68;47.48;100378.84;4397055;32;34251;-82
2023/05/05 05:43:34;;;;;;;;;;;;;;;16.91;46.81;100375.69;4401220;32;34943;-82
2023/05/05 05:46:09;;;;;;;;;;;;;;;17.27;45.98;100382.34;4399793;32;35073;-82
2023/05/05 05:48:39;;;;;;;;;;;;;;;17.66;42.43;100373.66;4397623;32;34596;-81
2023/05/05 05:51:08;;;;;;;;;;;;;;;17.69;43.73;100377.94;4399011;32;32809;-82
2023/05/05 05:53:36;;;;;;;;;;;;;;;17.63;43.79;100380.03;4398769;32;34890;-81
2023/05/05 05:56:06;;;;;;;;;;;;;;;17.53;44.35;100381.59;4403255;32;33633;-82
2023/05/05 05:58:39;;;;;;;;;;;;;;;17.85;42.84;100378.69;4397363;32;34260;-82
2023/05/05 06:01:08;;;;;;;;;;;;;;;17.51;43.04;100380.81;4391057;32;34058;-81
2023/05/05 06:03:36;;;;;;;;;;;;;;;17.44;43.06;100384.84;4399480;32;33716;-81
2023/05/05 06:06:06;;;;;;;;;;;;;;;17.51;44.06;100383.47;4395766;32;34304;-80
2023/05/05 06:08:34;;;;;;;;;;;;;;;17.73;43.12;100388.34;4401039;32;34455;-80
2023/05/05 06:11:03;;;;;;;;;;;;;;;17.67;44.05;100380.72;4396809;32;34082;-80
2023/05/05 06:13:34;;;;;;;;;;;;;;;18.10;42.92;100372.63;4399292;32;33767;-81
2023/05/05 06:16:07;;;;;;;;;;;;;;;17.99;43.60;100378.66;4399441;32;33938;-81
2023/05/05 06:18:36;;;;;;;;;;;;;;;18.09;43.25;100373.59;4404985;32;35060;-81
2023/05/05 06:21:05;;;;;;;;;;;;;;;18.16;43.47;100373.06;4412969;32;34055;-81
2023/05/05 06:23:36;;;;;;;;;;;;;;;18.46;41.79;100374.66;4396857;32;34415;-82
2023/05/05 06:26:04;;;;;;;;;;;;;;;18.17;42.79;100369.41;4392395;32;34029;-81
2023/05/05 06:28:33;;;;;;;;;;;;;;;17.99;45.05;100375.97;4395975;32;34232;-82
2023/05/05 06:31:02;;;;;;;;;;;;;;;18.31;44.53;100370.31;4398627;32;33324;-82
2023/05/05 06:33:35;;;;;;;;;;;;;;;18.51;44.14;100367.16;4390072;32;35779;-82
2023/05/05 06:36:03;;;;;;;;;;;;;;;18.64;43.08;100362.69;4400331;32;34298;-82
2023/05/05 06:38:31;;;;;;;;;;;;;;;18.80;43.42;100361.69;4400980;32;34528;-82
2023/05/05 06:40:59;;;;;;;;;;;;;;;18.99;41.49;100355.91;4398875;32;33985;-82
2023/05/05 06:43:31;;;;;;;;;;;;;;;18.53;41.34;100365.25;4397669;32;34530;-82
2023/05/05 06:46:01;;;;;;;;;;;;;;;18.78;40.72;100359.13;4399846;32;34303;-82
2023/05/05 06:48:29;;;;;;;;;;;;;;;18.89;40.83;100355.69;4398455;32;35088;-82
2023/05/05 06:50:57;;;;;;;;;;;;;;;18.80;40.81;100356.31;4371941;32;874068;-81
2023/05/05 06:53:27;;;;;;;;;;;;;;;19.19;40.40;100358.06;4395263;32;34205;-81
2023/05/05 06:55:55;;;;;;;;;;;;;;;19.22;39.74;100359.66;4390591;32;33891;-82
2023/05/05 06:58:24;;;;;;;;;;;;;;;19.42;39.68;100357.28;4399247;32;33722;-81
2023/05/05 07:00:56;;;;;;;;;;;;;;;19.48;39.87;100358.66;4399022;32;34261;-81
2023/05/05 07:06:00;;;;;;;;;;;;;;;19.65;40.10;100361.03;4398002;32;34412;-81
2023/05/05 07:08:28;;;;;;;;;;;;;;;19.99;38.70;100350.50;4398058;32;34163;-81
2023/05/05 07:10:59;;;;;;;;;;;;;;;19.26;39.37;100356.66;4394823;32;33868;-81
2023/05/05 07:13:29;;;;;;;;;;;;;;;19.32;39.74;100352.66;4398509;32;33510;-81
2023/05/05 07:15:57;;;;;;;;;;;;;;;19.25;40.16;100362.13;4409156;32;33965;-81
2023/05/05 07:18:26;;;;;;;;;;;;;;;19.46;39.66;100360.56;4396921;32;34712;-81
2023/05/05 07:20:54;;;;;;;;;;;;;;;19.44;39.75;100357.16;4398566;32;33226;-81
2023/05/05 07:23:24;;;;;;;;;;;;;;;19.60;39.96;100355.09;4388770;32;34813;-81
2023/05/05 07:25:51;;;;;;;;;;;;;;;19.55;40.58;100359.91;4387456;32;33689;-81
2023/05/05 07:28:21;;;;;;;;;;;;;;;19.82;40.66;100356.25;4385203;32;34268;-82
2023/05/05 07:30:55;;;;;;;;;;;;;;;20.13;39.16;100354.81;4392242;32;33667;-81
2023/05/05 07:33:24;;;;;;;;;;;;;;;19.99;39.59;100355.87;4389360;32;33643;-81
2023/05/05 07:35:52;;;;;;;;;;;;;;;20.35;38.56;100351.38;4397942;32;34431;-81
2023/05/05 07:38:20;;;;;;;;;;;;;;;20.42;39.83;100352.66;4378583;32;35023;-81
2023/05/05 07:40:50;;;;;;;;;;;;;;;20.75;39.38;100351.03;4367513;32;34549;-80
2023/05/05 07:43:19;;;;;;;;;;;;;;;20.72;38.05;100362.87;4379361;32;34980;-81
2023/05/05 07:45:48;;;;;;;;;;;;;;;20.87;38.12;100352.78;4385266;32;33999;-82
2023/05/05 07:48:17;;;;;;;;;;;;;;;21.06;38.28;100358.44;4386271;32;34517;-81
2023/05/05 07:50:45;;;;;;;;;;;;;;;20.70;38.31;100352.28;4399201;32;33327;-80
2023/05/05 07:53:14;;;;;;;;;;;;;;;21.26;37.97;100345.25;4380895;32;36028;-82
2023/05/05 07:55:44;;;;;;;;;;;;;;;20.96;38.58;100358.28;4393873;32;34728;-81
2023/05/05 07:58:12;;;;;;;;;;;;;;;21.31;38.35;100351.12;4392481;32;34568;-81
2023/05/05 08:00:42;;;;;;;;;;;;;;;21.45;37.16;100354.44;4393084;32;33454;-81
2023/05/05 08:03:11;;;;;;;;;;;;;;;21.63;38.85;100360.16;4374212;32;33353;-82
2023/05/05 08:05:39;;;;;;;;;;;;;;;22.07;36.48;100350.28;4380632;32;35902;-79
2023/05/05 08:08:10;;;;;;;;;;;;;;;21.08;38.18;100359.19;4386973;32;34076;-82
2023/05/05 08:10:39;;;;;;;;;;;;;;;21.45;37.99;100350.88;4389349;32;33733;-81
2023/05/05 08:13:08;;;;;;;;;;;;;;;21.69;37.80;100351.59;4392061;32;33218;-82
2023/05/05 08:15:44;;;;;;;;;;;;;;;22.09;37.09;100351.03;4389533;32;34100;-82
2023/05/05 08:18:13;;;;;;;;;;;;;;;22.09;37.79;100348.31;4384074;32;34406;-81
2023/05/05 08:20:41;;;;;;;;;;;;;;;22.05;37.00;100349.56;4380143;32;33103;-81
2023/05/05 08:23:16;;;;;;;;;;;;;;;22.56;36.23;100343.50;4382713;32;34987;-81
2023/05/05 08:25:48;;;;;;;;;;;;;;;22.67;36.66;100343.44;4399083;32;34414;-82
2023/05/05 08:28:16;;;;;;;;;;;;;;;21.85;37.30;100350.34;4374343;32;35144;-81
2023/05/05 08:30:56;;;;;;;;;;;;;;;21.81;38.12;100341.69;4387563;32;35176;-81
2023/05/05 08:33:24;;;;;;;;;;;;;;;22.41;36.46;100347.50;4374294;32;33532;-81
2023/05/05 08:35:52;;;;;;;;;;;;;;;22.43;37.04;100343.69;4383114;32;33935;-81
2023/05/05 08:38:20;;;;;;;;;;;;;;;22.45;36.74;100343.56;4378261;32;32954;-81
2023/05/05 08:40:50;;;;;;;;;;;;;;;22.64;37.59;100351.75;4385431;32;34196;-80
2023/05/05 08:43:21;;;;;;;;;;;;;;;22.28;37.32;100346.84;4385129;32;34808;-83
2023/05/05 08:45:50;;;;;;;;;;;;;;;22.29;38.06;100348.53;4370186;32;33968;-82
2023/05/05 08:48:20;;;;;;;;;;;;;;;22.55;35.97;100347.19;4387161;32;34431;-83
2023/05/05 08:50:53;;;;;;;;;;;;;;;22.44;37.49;100345.41;4400226;32;32150;-82
2023/05/05 08:53:29;;;;;;;;;;;;;;;22.23;37.61;100345.37;4378465;32;33310;-82
2023/05/05 08:56:01;;;;;;;;;;;;;;;22.60;36.67;100339.59;4385190;32;34030;-83
2023/05/05 08:58:31;;;;;;;;;;;;;;;23.16;37.04;100336.50;4389883;32;33621;-81
2023/05/05 09:01:00;;;;;;;;;;;;;;;23.55;34.73;100331.31;4385438;32;32071;-83
2023/05/05 09:03:30;;;;;;;;;;;;;;;23.58;36.23;100336.41;4388063;32;34550;-83
2023/05/05 09:06:02;;;;;;;;;;;;;;;23.20;36.20;100337.97;4398910;32;33947;-83
2023/05/05 09:08:30;;;;;;;;;;;;;;;23.31;36.23;100326.25;4378905;32;32752;-83
2023/05/05 09:10:59;;;;;;;;;;;;;;;23.72;34.01;100327.94;4375738;32;32472;-82
2023/05/05 09:13:27;;;;;;;;;;;;;;;23.18;35.33;100333.72;4387186;32;34571;-82
2023/05/05 09:15:54;;;;;;;;;;;;;;;22.64;36.53;100322.16;4386754;32;34117;-82
2023/05/05 09:18:24;;;;;;;;;;;;;;;22.87;36.04;100319.31;4378724;32;34448;-82
2023/05/05 09:20:54;;;;;;;;;;;;;;;23.40;35.29;100325.41;4373950;32;31903;-82
2023/05/05 09:23:26;;;;;;;;;;;;;;;23.65;35.20;100315.19;4380405;32;34282;-82
2023/05/05 09:26:06;;;;;;;;;;;;;;;23.63;34.13;100322.50;4384719;32;34926;-82
2023/05/05 09:28:36;;;;;;;;;;;;;;;23.46;35.50;100314.09;4396767;32;35089;-82
2023/05/05 09:31:18;;;;;;;;;;;;;;;23.21;35.63;100310.03;4383702;32;32875;-82
2023/05/05 09:33:46;;;;;;;;;;;;;;;23.23;34.79;100309.91;4402672;32;34241;-81
2023/05/05 09:36:15;;;;;;;;;;;;;;;23.17;34.77;100305.91;4400098;32;34527;-82
2023/05/05 09:39:06;;;;;;;;;;;;;;;23.63;34.72;100300.94;4409390;32;34587;-80
2023/05/05 09:41:36;;;;;;;;;;;;;;;23.39;35.23;100299.44;4398160;32;33096;-82
2023/05/05 09:44:05;;;;;;;;;;;;;;;23.75;34.64;100299.88;4386191;32;32897;-82
2023/05/05 09:46:35;;;;;;;;;;;;;;;24.39;34.00;100295.78;4399025;32;34160;-82
2023/05/05 09:49:13;;;;;;;;;;;;;;;24.40;33.24;100292.09;4395878;32;34399;-82
2023/05/05 09:51:41;;;;;;;;;;;;;;;24.34;32.30;100285.41;4393049;32;33482;-82
2023/05/05 09:54:19;;;;;;;;;;;;;;;24.11;32.49;100283.97;4397435;32;33632;-82
2023/05/05 09:56:49;;;;;;;;;;;;;;;24.09;33.45;100285.97;4398631;32;32688;-82
2023/05/05 09:59:17;;;;;;;;;;;;;;;23.70;34.03;100286.81;4399435;32;34422;-82
2023/05/05 10:01:47;;;;;;;;;;;;;;;24.40;33.70;100278.59;4384366;32;33188;-82
2023/05/05 10:04:29;;;;;;;;;;;;;;;24.72;33.26;100276.41;4399385;32;34895;-82
2023/05/05 10:06:57;;;;;;;;;;;;;;;24.92;32.79;100279.03;4397261;32;35894;-82
2023/05/05 10:09:26;;;;;;;;;;;;;;;24.93;31.67;100273.50;4396431;32;35167;-82
2023/05/05 10:11:59;;;;;;;;;;;;;;;24.56;33.60;100268.06;4387366;32;35126;-82
2023/05/05 10:14:28;;;;;;;;;;;;;;;24.98;32.52;100270.38;4396861;32;34629;-82
2023/05/05 10:16:56;;;;;;;;;;;;;;;25.09;32.33;100270.19;4410558;32;33839;-82
2023/05/05 10:19:24;;;;;;;;;;;;;;;25.48;31.55;100270.00;4399925;32;34782;-82
2023/05/05 10:21:58;;;;;;;;;;;;;;;25.51;29.77;100269.69;4394663;32;34265;-82
2023/05/05 10:24:34;;;;;;;;;;;;;;;25.36;30.00;100271.22;4384579;32;32097;-82
2023/05/05 10:27:03;;;;;;;;;;;;;;;25.50;30.19;100262.59;4391230;32;33469;-82
2023/05/05 10:29:53;;;;;;;;;;;;;;;25.41;31.33;100266.22;4400509;32;33659;-82
2023/05/05 10:32:27;;;;;;;;;;;;;;;25.78;29.91;100255.31;4385117;32;32112;-82
2023/05/05 10:35:23;;;;;;;;;;;;;;;25.73;29.66;100253.03;4397576;32;34921;-82
2023/05/05 10:37:52;;;;;;;;;;;;;;;25.02;30.65;100250.16;4395264;32;34737;-82
2023/05/05 10:40:20;;;;;;;;;;;;;;;24.81;30.18;100249.53;4398202;32;33055;-82
2023/05/05 10:42:49;;;;;;;;;;;;;;;24.98;29.80;100251.44;4387515;32;32321;-82
2023/05/05 10:45:18;;;;;;;;;;;;;;;24.92;29.29;100241.22;4385176;32;33651;-83
2023/05/05 10:47:48;;;;;;;;;;;;;;;24.67;30.30;100240.87;4390284;32;32624;-84
2023/05/05 10:50:34;;;;;;;;;;;;;;;24.34;31.51;100238.66;4384084;32;34195;-83
2023/05/05 10:53:03;;;;;;;;;;;;;;;24.75;30.80;100235.59;4371529;32;32851;-83
2023/05/05 10:55:37;;;;;;;;;;;;;;;25.16;29.90;100232.59;4390494;32;33993;-82
2023/05/05 10:58:12;;;;;;;;;;;;;;;24.66;30.27;100223.00;4399877;32;34313;-82
2023/05/05 11:00:43;;;;;;;;;;;;;;;25.38;30.55;100225.94;4398841;32;34226;-82
2023/05/05 11:03:20;;;;;;;;;;;;;;;25.24;30.52;100225.44;4373217;32;33871;-82
2023/05/05 11:06:06;;;;;;;;;;;;;;;25.81;28.88;100213.56;4360512;32;34388;-83
2023/05/05 11:08:38;;;;;;;;;;;;;;;25.82;30.29;100212.56;4401092;32;34314;-82
2023/05/05 11:11:06;;;;;;;;;;;;;;;26.08;30.05;100207.22;4390872;32;31767;-82
2023/05/05 11:13:42;;;;;;;;;;;;;;;26.30;28.38;100203.97;4391065;32;35036;-83
2023/05/05 11:16:33;;;;;;;;;;;;;;;27.01;26.56;100200.16;4384081;32;34033;-82
2023/05/05 11:19:12;;;;;;;;;;;;;;;26.71;28.76;100198.84;4402303;32;34660;-82
2023/05/05 11:21:58;;;;;;;;;;;;;;;26.16;28.63;100199.13;4379926;32;34527;-83
2023/05/05 11:24:28;;;;;;;;;;;;;;;25.85;28.60;100199.59;4398320;32;33126;-82
2023/05/05 11:26:56;;;;;;;;;;;;;;;26.08;29.29;100201.81;4398094;32;34300;-82
2023/05/05 11:29:25;;;;;;;;;;;;;;;26.45;28.16;100190.78;4402675;32;33123;-82
2023/05/05 11:32:12;;;;;;;;;;;;;;;27.21;27.51;100184.53;4383772;32;34482;-83
2023/05/05 11:34:48;;;;;;;;;;;;;;;26.37;28.67;100185.25;4376210;32;33521;-82
2023/05/05 11:37:17;;;;;;;;;;;;;;;25.40;30.69;100189.66;4390149;32;33391;-82
2023/05/05 11:39:54;;;;;;;;;;;;;;;26.27;29.28;100179.94;4386753;32;34956;-82
2023/05/05 11:42:32;;;;;;;;;;;;;;;26.37;29.88;100179.84;4397565;32;35124;-82
2023/05/05 11:45:01;;;;;;;;;;;;;;;26.21;28.32;100176.03;4385516;32;33844;-82
2023/05/05 11:47:30;;;;;;;;;;;;;;;26.52;27.90;100162.03;4385979;32;34341;-82
2023/05/05 11:49:58;;;;;;;;;;;;;;;26.78;27.81;100162.84;4387579;32;33606;-82
2023/05/05 11:52:33;;;;;;;;;;;;;;;26.65;28.18;100161.59;4385432;32;34752;-82
2023/05/05 11:55:03;;;;;;;;;;;;;;;26.67;27.81;100165.81;4391135;32;32350;-82
2023/05/05 11:57:36;;;;;;;;;;;;;;;26.45;28.39;100164.53;4378232;32;34329;-82
2023/05/05 12:00:07;;;;;;;;;;;;;;;25.86;29.31;100158.00;4386351;32;34405;-82
2023/05/05 12:02:36;;;;;;;;;;;;;;;25.77;31.53;100172.44;4400663;32;34337;-82
2023/05/05 12:05:05;;;;;;;;;;;;;;;25.98;30.84;100156.75;4385700;32;33531;-82
2023/05/05 12:07:36;;;;;;;;;;;;;;;26.09;30.32;100155.63;4385760;32;34821;-82
2023/05/05 12:10:07;;;;;;;;;;;;;;;26.12;30.70;100154.47;4375758;32;33084;-82
2023/05/05 12:12:38;;;;;;;;;;;;;;;26.02;29.63;100149.16;4386550;32;35426;-82
2023/05/05 12:17:45;;;;;;;;;;;;;;;26.30;29.23;100145.31;4386321;32;33922;-82
2023/05/05 12:20:33;;;;;;;;;;;;;;;25.72;29.71;100150.41;4398977;32;34072;-82
2023/05/05 12:23:02;;;;;;;;;;;;;;;26.18;29.32;100143.00;4390604;32;33578;-83
2023/05/05 12:25:35;;;;;;;;;;;;;;;26.38;28.12;100143.62;4395251;32;32195;-84
2023/05/05 12:28:07;;;;;;;;;;;;;;;25.58;30.18;100146.38;4399879;32;33897;-85
2023/05/05 12:30:40;;;;;;;;;;;;;;;25.76;28.94;100141.00;4398257;32;34711;-85
2023/05/05 12:33:10;;;;;;;;;;;;;;;25.51;30.69;100142.63;4381701;32;32764;-85
2023/05/05 12:35:38;;;;;;;;;;;;;;;25.48;30.45;100135.66;4393737;32;33234;-85
2023/05/05 12:38:06;;;;;;;;;;;;;;;25.29;31.05;100141.22;4399903;32;34581;-85
2023/05/05 12:40:45;;;;;;;;;;;;;;;24.80;32.28;100140.62;4399463;32;34668;-85
2023/05/05 12:43:26;;;;;;;;;;;;;;;25.18;31.92;100134.19;4408579;32;34127;-85
2023/05/05 12:46:00;;;;;;;;;;;;;;;25.70;30.28;100128.09;4387590;32;32730;-85
2023/05/05 12:48:30;;;;;;;;;;;;;;;25.83;30.37;100128.56;4396550;32;33305;-84
2023/05/05 12:51:10;;;;;;;;;;;;;;;26.02;29.29;100125.66;4396563;32;33492;-84
2023/05/05 12:53:41;;;;;;;;;;;;;;;25.88;29.98;100118.13;4398107;32;33434;-85
2023/05/05 12:56:32;;;;;;;;;;;;;;;25.52;30.73;100131.63;4398439;32;34286;-85
2023/05/05 12:59:01;;;;;;;;;;;;;;;25.47;31.65;100123.16;4397664;32;33851;-85
2023/05/05 13:01:29;;;;;;;;;;;;;;;25.90;29.80;100107.12;4399401;32;34332;-85